This is the latest recevied weather packets stored in our database for station/object EA3GKP-10. If no packets are shown the sender has not sent any weather packets the latest 10 day(s).
| Time | Temp. | Humidity | Pressure | Rain* | Wind** | Luminosity | Snow |
|---|---|---|---|---|---|---|---|
| 1777899576 | 22.22° C | - | - | 0 mm | 0 m/s | - | - |
| 1777899273 | 22.22° C | - | - | 0 mm | 0 m/s | - | - |
| 1777898965 | 21.67° C | - | - | 0 mm | 0 m/s | - | - |
| 1777898662 | 21.11° C | - | - | 0 mm | 0.89 m/s, 359° | - | - |
| 1777898355 | 21.67° C | - | - | 0 mm | 0 m/s | - | - |
| 1777898048 | 21.11° C | - | - | 0 mm | 0.45 m/s, 359° | - | - |
| 1777897744 | 21.11° C | - | - | 0 mm | 0 m/s | - | - |
| 1777897438 | 21.67° C | - | - | 0 mm | 0.89 m/s, 359° | - | - |
| 1777897129 | 21.11° C | - | - | 0 mm | 0 m/s | - | - |
| 1777896823 | 21.11° C | - | - | 0 mm | 2.68 m/s, 359° | - | - |
| 1777896520 | 21.11° C | - | - | 0 mm | 0.45 m/s, 359° | - | - |
| 1777896218 | 22.22° C | - | - | 0 mm | 0.89 m/s, 0° | - | - |
| 1777895914 | 22.22° C | - | - | 0 mm | 1.34 m/s, 359° | - | - |
| 1777895611 | 21.11° C | - | - | 0 mm | 0.89 m/s, 359° | - | - |
| 1777895308 | 21.11° C | - | - | 0 mm | 0 m/s | - | - |
| 1777895001 | 21.67° C | - | - | 0 mm | 0.45 m/s, 23° | - | - |
| 1777894394 | 21.67° C | - | - | 0 mm | 0 m/s | - | - |
| 1777894091 | 20.56° C | - | - | 0 mm | 0.89 m/s, 359° | - | - |
| 1777893788 | 21.67° C | - | - | 0 mm | 0 m/s | - | - |
| 1777893482 | 21.11° C | - | - | 0 mm | 1.79 m/s, 10° | - | - |
| 1777893178 | 21.11° C | - | - | 0 mm | 1.79 m/s, 359° | - | - |
| 1777892877 | 20.56° C | - | - | 0 mm | 2.68 m/s, 90° | - | - |
| 1777892572 | 20.56° C | - | - | 0 mm | 1.79 m/s, 37° | - | - |
| 1777892269 | 21.11° C | - | - | 0 mm | 0 m/s | - | - |
| 1777891964 | 20.56° C | - | - | 0 mm | 0 m/s | - | - |
* Rain latest hour (hover to see other rain measurements)
** Current wind speed in m/s (hover to see current wind gust speed)